AirNav   Everest Fuels
 
 566 users online  

0M9 Delhi Municipal Airport
Delhi, Louisiana, USA

GOING TO DELHI?


FAA INFORMATION EFFECTIVE 21 MAY 2020

Location

FAA Identifier: 0M9
Lat/Long: 32-24-38.6000N 091-29-54.7000W
32-24.643333N 091-29.911667W
32.4107222,-91.4985278
(estimated)
Elevation: 91 ft. / 27.7 m (surveyed)
Variation: 04E (1985)
From city: 3 miles S of DELHI, LA
Time zone: UTC -5 (UTC -6 during Standard Time)
Zip code: 71232

Airport Operations

Airport use: Open to the public
Activation date: 01/1960
Control tower: no
ARTCC: FORT WORTH CENTER
FSS: DE RIDDER FLIGHT SERVICE STATION
NOTAMs facility: DRI (NOTAM-D service available)
Attendance: UNATNDD
Wind indicator: lighted
Segmented circle: yes
Lights: MIRL RY 18/36, REIL RYS 18 & 36 PRESET LOW INTST DUSK-DAWN; TO INCR INTST ACTVT - CTAF.
Beacon: white-green (lighted land airport)
Operates sunset to sunrise.

Airport Communications

CTAF: 122.9

Nearby radio navigation aids

VOR radial/distance  VOR name  Freq  Var
MLUr100/27.9MONROE VORTAC117.2003E

 
NDB name  Hdg/Dist  Freq  Var  ID
TALLULAH290/25.934402ETKH - -.- ....
BASTROP134/28.432903EBQP -... --.- .--.

Airport Services

Parking: tiedowns

Runway Information

Runway 18/36

Dimensions: 3000 x 75 ft. / 914 x 23 m
Surface: asphalt, in good condition
Weight bearing capacity: 
Single wheel: 5.0
Runway edge lights: medium intensity
RUNWAY 18  RUNWAY 36
Latitude: 32-24.891482N32-24.396660N
Longitude: 091-29.915747W091-29.907590W
Traffic pattern: leftleft
Runway heading: 175 magnetic, 179 true355 magnetic, 359 true
Markings: basic, in good conditionbasic, in good condition
Runway end identifier lights: yesyes
Obstructions: 29 ft. trees, 502 ft. from runway, 141 ft. left of centerline, 10:1 slope to clear
34 FT TREES 113 FT RIGHT OF CNTRLN 246 FT FM END OF RY; 28 FT TREES 124 FT LEFT OF CNTRLN 143 FT FM END OF RY.
15 ft. road, 345 ft. from runway, 10:1 slope to clear
16 FT TREES 123 FT RIGHT OF CNTRLN 221 FT FM END OF RY.

Airport Ownership and Management from official FAA records

Ownership: Publicly-owned
Owner: TOWN OF DELHI
PO BOX 277
DELHI, LA 71232
Phone 318-878-3792
Manager: LOUIS MARTIN
86 AIRPORT RD
DELHI, LA 71232
Phone (318) 614-9210

Airport Operational Statistics

Aircraft based on the field: 3
Single engine airplanes: 2
Multi engine airplanes: 1
    
Aircraft operations: avg 22/day *
50% transient general aviation
50% local general aviation
* for 12-month period ending 19 March 2020

Additional Remarks

RY 18/36 4 FT FENCE 123 FT FM CNTRLN ON BOTH SIDES OF RY.
FOR CD CTC MONROE APCH AT 318-327-5641, IF UNAVBL, CTC FORT WORTH ARTCC AT 817-858-7584.

Instrument Procedures

There are no published instrument procedures at 0M9.

Some nearby airports with instrument procedures:

M79 - John H Hooks Jr Memorial Airport (15 nm W)
KTVR - Vicksburg Tallulah Regional Airport (24 nm E)
KMLU - Monroe Regional Airport (28 nm W)
KBQP - Morehouse Memorial Airport (28 nm NW)
KVKS - Vicksburg Municipal Airport (31 nm E)
 
Loc | Ops | Rwys | IFR | FBO | Links
Com | Nav | Svcs | Stats | Notes
Area around 0M9 (Delhi Municipal Airport)
 
Road maps at: MapQuest Bing Google
 
Aerial photo
WARNING: Photo may not be current or correct
Aerial photo of 0M9 (Delhi Municipal Airport)
Photo by Eddie Delhoste
Photo taken 27-Dec-2012
looking north.

Do you have a better or more recent aerial photo of Delhi Municipal Airport that you would like to share? If so, please send us your photo.

 
Sectional chart

 
Airport distance calculator
Flying to Delhi Municipal Airport? Find the distance to fly.

From to 0M9

Sunrise and sunset
Times for 27-May-2020
 Local
(UTC-5)
 Zulu
(UTC)
Morning civil twilight05:3410:34
Sunrise06:0211:02
Sunset20:0501:05
Evening civil twilight20:3201:32

Current date and time
Zulu (UTC)  27-May-2020 10:46:23
Local (UTC-5)  27-May-2020 05:46:23
 
METAR
KTVR 
24nm E 
271040Z AUTO 00000KT 5SM BR CLR 21/19 A2989 RMK AO2 T02110194
KMLU 
28nm W 
270953Z AUTO 00000KT 10SM BKN070 BKN100 19/17 A2987 RMK AO2 LTG DSNT SW SLP112 T01890172
KBQP 
28nm NW 
271035Z AUTO 00000KT 10SM SCT050 OVC055 17/17 A2988 RMK AO2 T01680165 TSNO
KVKS 
31nm E 
271035Z AUTO 00000KT 10SM SCT005 20/20 A2988 RMK A01
TAF
KMLU 
28nm W 
270539Z 2706/2806 VRB03KT P6SM VCTS SCT030 BKN060CB FM270730 30010KT 6SM -TSRA SCT015 BKN030CB FM270800 28003KT P6SM FEW015 SCT030 BKN060 FM271130 26003KT 6SM BR BKN010 BKN030 FM271500 VRB04KT P6SM VCTS SCT025 BKN040CB FM271800 24009KT P6SM VCSH SCT030 BKN090 FM280000 VRB04KT P6SM SCT100
NOTAMs
Click for the latest NOTAMs
NOTAMs are issued by the DoD/FAA and will open in a separate window not controlled by AirNav.

 

 
 

Would you like to see your business listed on this page?

 If your business provides an interesting product or service to pilots, flight crews, aircraft, or users of the Delhi Municipal Airport, you should consider listing it here.  To start the listing process, click on the button below
 
Add a business
 

Other Pages about Delhi Municipal Airport

Update a link
 
Copyright © AirNav, LLC. All rights reserved. Privacy Policy  Contact